createdAt,value
2019-03-24T00:01:14.549Z,38.96
2019-03-24T00:03:41.870Z,38.95
2019-03-24T00:06:08.817Z,38.94
2019-03-24T00:08:35.801Z,38.92
2019-03-24T00:11:02.870Z,38.96
2019-03-24T00:13:29.821Z,39.09
2019-03-24T00:15:56.708Z,39.32
2019-03-24T00:18:24.042Z,39.51
2019-03-24T00:20:50.925Z,39.53
2019-03-24T00:23:17.872Z,39.56
2019-03-24T00:25:45.610Z,39.58
2019-03-24T00:28:12.559Z,39.55
2019-03-24T00:30:39.834Z,39.58
2019-03-24T00:33:06.761Z,39.73
2019-03-24T00:35:33.986Z,39.70
2019-03-24T00:38:00.868Z,39.64
2019-03-24T00:40:28.086Z,39.54
2019-03-24T00:42:55.342Z,39.47
2019-03-24T00:45:22.257Z,39.48
2019-03-24T00:47:49.574Z,39.45
2019-03-24T00:50:17.688Z,39.45
2019-03-24T00:52:44.639Z,39.45
2019-03-24T00:55:11.937Z,39.42
2019-03-24T00:57:40.021Z,39.41
2019-03-24T01:00:07.230Z,39.39
2019-03-24T01:02:34.484Z,39.50
2019-03-24T01:05:01.449Z,39.44
2019-03-24T01:07:29.492Z,39.48
2019-03-24T01:09:56.756Z,39.76
2019-03-24T01:12:23.625Z,39.73
2019-03-24T01:14:50.952Z,39.70
2019-03-24T01:17:18.900Z,39.62
2019-03-24T01:19:46.283Z,39.70
2019-03-24T01:22:13.525Z,39.69
2019-03-24T01:24:40.413Z,39.66
2019-03-24T01:27:07.625Z,39.63
2019-03-24T01:29:34.877Z,39.70
2019-03-24T01:32:01.784Z,39.58
2019-03-24T01:34:28.732Z,39.55
2019-03-24T01:36:55.676Z,39.55
2019-03-24T01:39:22.572Z,39.47
2019-03-24T01:41:49.817Z,39.42
2019-03-24T01:44:17.180Z,39.49
2019-03-24T01:46:44.088Z,39.65
2019-03-24T01:49:11.369Z,39.86
2019-03-24T01:51:38.342Z,39.87
2019-03-24T01:54:05.556Z,39.83
2019-03-24T01:56:32.470Z,39.77
2019-03-24T01:58:59.420Z,39.64
2019-03-24T02:01:26.606Z,39.56
2019-03-24T02:03:53.568Z,39.48
2019-03-24T02:06:20.529Z,39.44
2019-03-24T02:08:47.504Z,39.53
2019-03-24T02:11:14.782Z,39.56
2019-03-24T02:13:42.837Z,39.55
2019-03-24T02:16:09.882Z,39.62
2019-03-24T02:18:38.005Z,39.59
2019-03-24T02:21:04.941Z,39.47
2019-03-24T02:23:31.812Z,39.50
2019-03-24T02:26:00.043Z,39.49
2019-03-24T02:28:27.190Z,39.49
2019-03-24T02:30:54.083Z,39.52
2019-03-24T02:33:21.037Z,39.44
2019-03-24T02:35:47.947Z,39.43
2019-03-24T02:38:14.873Z,39.37
2019-03-24T02:40:42.128Z,39.41
2019-03-24T02:43:09.062Z,39.35
2019-03-24T02:45:36.352Z,39.38
2019-03-24T02:48:04.378Z,39.37
2019-03-24T02:50:31.317Z,39.43
2019-03-24T02:52:58.798Z,39.42
2019-03-24T02:55:25.685Z,39.53
2019-03-24T02:57:52.990Z,39.70
2019-03-24T03:00:19.877Z,39.63
2019-03-24T03:02:46.832Z,39.49
2019-03-24T03:05:14.145Z,39.44
2019-03-24T03:07:41.090Z,39.47
2019-03-24T03:10:08.350Z,39.58
2019-03-24T03:12:35.319Z,39.56
2019-03-24T03:15:02.301Z,39.60
2019-03-24T03:17:30.253Z,39.57
2019-03-24T03:19:57.272Z,39.61
2019-03-24T03:22:24.242Z,39.64
2019-03-24T03:24:51.558Z,39.58
2019-03-24T03:27:18.526Z,39.50
2019-03-24T03:29:45.455Z,39.60
2019-03-24T03:32:12.326Z,39.63
2019-03-24T03:34:39.205Z,39.68
2019-03-24T03:37:06.234Z,39.70
2019-03-24T03:39:33.167Z,39.74
2019-03-24T03:42:00.101Z,39.82
2019-03-24T03:44:27.327Z,39.95
2019-03-24T03:46:54.220Z,40.10
2019-03-24T03:49:22.513Z,40.26
2019-03-24T03:51:49.480Z,40.29
2019-03-24T03:54:16.739Z,40.36
2019-03-24T03:56:43.630Z,40.34
2019-03-24T03:59:10.597Z,40.32
2019-03-24T04:01:37.570Z,40.28
2019-03-24T04:04:04.840Z,40.26
2019-03-24T04:06:32.216Z,40.20
2019-03-24T04:08:59.086Z,40.19
2019-03-24T04:11:26.386Z,40.13
2019-03-24T04:13:53.300Z,40.02
2019-03-24T04:16:20.237Z,40.03
2019-03-24T04:18:47.228Z,40.00
2019-03-24T04:21:14.146Z,40.07
2019-03-24T04:23:41.060Z,40.05
2019-03-24T04:26:07.934Z,40.06
2019-03-24T04:28:34.906Z,40.23
2019-03-24T04:31:01.861Z,40.34
2019-03-24T04:33:29.202Z,40.25
2019-03-24T04:35:56.074Z,40.23
2019-03-24T04:38:24.607Z,40.15
2019-03-24T04:40:51.909Z,40.06
2019-03-24T04:43:18.901Z,40.05
2019-03-24T04:45:45.904Z,40.27
2019-03-24T04:48:12.841Z,40.33
2019-03-24T04:50:39.711Z,40.39
2019-03-24T04:53:06.928Z,40.53
2019-03-24T04:55:33.903Z,40.67
2019-03-24T04:58:00.841Z,40.66
2019-03-24T05:00:27.709Z,40.61
2019-03-24T05:02:54.617Z,40.62
2019-03-24T05:05:21.486Z,40.71
2019-03-24T05:07:48.705Z,40.77
2019-03-24T05:10:15.671Z,40.68
2019-03-24T05:12:42.892Z,40.65
2019-03-24T05:15:10.152Z,40.57
2019-03-24T05:17:37.145Z,40.51
2019-03-24T05:20:04.038Z,40.43
2019-03-24T05:22:30.960Z,40.38
2019-03-24T05:24:58.345Z,40.30
2019-03-24T05:27:25.305Z,40.23
2019-03-24T05:29:52.193Z,40.22
2019-03-24T05:32:19.060Z,40.21
2019-03-24T05:34:45.956Z,40.17
2019-03-24T05:37:13.181Z,40.15
2019-03-24T05:39:40.423Z,40.14
2019-03-24T05:42:07.390Z,40.10
2019-03-24T05:44:35.871Z,40.02
2019-03-24T05:47:03.244Z,39.99
2019-03-24T05:49:30.188Z,39.98
2019-03-24T05:51:57.703Z,39.99
2019-03-24T05:54:24.957Z,39.93
2019-03-24T05:56:51.852Z,39.82
2019-03-24T05:59:18.858Z,39.84
2019-03-24T06:01:45.808Z,40.07
2019-03-24T06:04:12.785Z,40.06
2019-03-24T06:06:39.726Z,39.99
2019-03-24T06:09:06.596Z,40.13
2019-03-24T06:11:33.751Z,40.29
2019-03-24T06:14:00.704Z,40.16
2019-03-24T06:16:27.899Z,39.96
2019-03-24T06:18:54.830Z,39.58
2019-03-24T06:21:21.717Z,39.44
2019-03-24T06:23:48.637Z,39.52
2019-03-24T06:26:15.529Z,39.40
2019-03-24T06:28:42.484Z,39.22
2019-03-24T06:31:09.465Z,39.40
2019-03-24T06:33:36.807Z,39.49
2019-03-24T06:36:03.731Z,39.58
2019-03-24T06:38:31.008Z,39.66
2019-03-24T06:40:57.920Z,39.60
2019-03-24T06:43:25.213Z,39.46
2019-03-24T06:45:52.484Z,39.43
2019-03-24T06:48:19.710Z,39.59
2019-03-24T06:50:46.893Z,39.75
2019-03-24T06:53:13.812Z,39.95
2019-03-24T06:55:40.958Z,39.97
2019-03-24T06:58:07.828Z,39.89
2019-03-24T07:00:34.713Z,39.93
2019-03-24T07:03:01.684Z,39.90
2019-03-24T07:05:28.850Z,39.48
2019-03-24T07:07:56.108Z,39.08
2019-03-24T07:10:23.072Z,38.99
2019-03-24T07:12:51.535Z,38.98
2019-03-24T07:15:18.542Z,39.01
2019-03-24T07:17:45.541Z,38.98
2019-03-24T07:20:12.878Z,38.93
2019-03-24T07:22:40.122Z,38.82
2019-03-24T07:25:07.387Z,38.59
2019-03-24T07:27:34.639Z,38.36
2019-03-24T07:30:01.603Z,38.23
2019-03-24T07:32:28.833Z,38.30
2019-03-24T07:34:56.089Z,38.29
2019-03-24T07:37:23.338Z,38.33
2019-03-24T07:39:50.235Z,38.33
2019-03-24T07:42:17.447Z,38.13
2019-03-24T07:44:44.397Z,37.98
2019-03-24T07:47:11.264Z,38.14
2019-03-24T07:49:39.631Z,38.33
2019-03-24T07:52:06.572Z,38.07
2019-03-24T07:54:34.487Z,37.90
2019-03-24T07:57:01.492Z,36.52
2019-03-24T07:59:29.524Z,35.94
2019-03-24T08:01:56.829Z,35.11
2019-03-24T08:04:23.783Z,34.73
2019-03-24T08:06:50.672Z,34.64
2019-03-24T08:09:18.034Z,34.91
2019-03-24T08:11:44.912Z,34.96
2019-03-24T08:14:11.802Z,34.80
2019-03-24T08:16:39.109Z,34.43
2019-03-24T08:19:06.034Z,34.03
2019-03-24T08:21:33.381Z,33.99
2019-03-24T08:24:00.624Z,33.45
2019-03-24T08:26:28.642Z,33.68
2019-03-24T08:28:55.525Z,33.60
2019-03-24T08:31:22.803Z,33.64
2019-03-24T08:33:50.033Z,33.59
2019-03-24T08:36:17.299Z,33.54
2019-03-24T08:38:44.181Z,33.54
2019-03-24T08:41:11.394Z,33.38
2019-03-24T08:43:38.280Z,33.30
2019-03-24T08:46:05.196Z,33.21
2019-03-24T08:48:40.540Z,33.15
2019-03-24T08:51:00.721Z,33.17
2019-03-24T08:53:27.750Z,33.20
2019-03-24T08:55:54.711Z,33.28
2019-03-24T08:58:21.677Z,33.32
2019-03-24T09:00:49.042Z,33.25
2019-03-24T09:03:16.264Z,33.25
2019-03-24T09:05:43.505Z,33.06
2019-03-24T09:08:10.403Z,33.00
2019-03-24T09:10:37.724Z,32.98
2019-03-24T09:13:04.666Z,32.81
2019-03-24T09:15:31.546Z,32.97
2019-03-24T09:17:58.418Z,33.26
2019-03-24T09:20:25.702Z,33.48
2019-03-24T09:22:52.697Z,33.59
2019-03-24T09:25:19.647Z,33.76
2019-03-24T09:27:46.937Z,33.67
2019-03-24T09:30:14.081Z,33.69
2019-03-24T09:32:41.358Z,33.58
2019-03-24T09:35:08.410Z,33.38
2019-03-24T09:37:35.364Z,33.31
2019-03-24T09:40:03.525Z,33.21
2019-03-24T09:42:30.766Z,33.16
2019-03-24T09:44:57.645Z,33.32
2019-03-24T09:47:24.876Z,33.45
2019-03-24T09:49:51.847Z,33.50
2019-03-24T09:52:19.167Z,33.67
2019-03-24T09:54:46.092Z,33.74
2019-03-24T09:57:13.266Z,33.67
2019-03-24T09:59:40.517Z,33.74
2019-03-24T10:02:07.776Z,33.77
2019-03-24T10:04:35.034Z,33.83
2019-03-24T10:07:01.934Z,33.92
2019-03-24T10:09:29.214Z,34.04
2019-03-24T10:11:56.449Z,34.04
2019-03-24T10:14:23.732Z,33.76
2019-03-24T10:16:50.712Z,33.37
2019-03-24T10:19:18.038Z,33.16
2019-03-24T10:21:44.984Z,33.23
2019-03-24T10:24:12.133Z,33.42
2019-03-24T10:26:39.381Z,33.51
2019-03-24T10:29:06.340Z,33.43
2019-03-24T10:31:33.216Z,33.42
2019-03-24T10:34:00.101Z,33.47
2019-03-24T10:36:27.257Z,33.42
2019-03-24T10:38:54.501Z,33.33
2019-03-24T10:41:21.408Z,33.19
2019-03-24T10:43:48.316Z,33.13
2019-03-24T10:46:15.319Z,33.10
2019-03-24T10:48:42.200Z,33.08
2019-03-24T10:51:09.097Z,33.18
2019-03-24T10:53:36.403Z,33.19
2019-03-24T10:56:03.386Z,33.19
2019-03-24T10:58:30.700Z,33.04
2019-03-24T11:00:57.575Z,32.97
2019-03-24T11:03:24.449Z,32.85
2019-03-24T11:05:51.641Z,32.86
2019-03-24T11:08:18.906Z,32.66
2019-03-24T11:10:46.152Z,32.65
2019-03-24T11:13:13.104Z,32.73
2019-03-24T11:15:40.327Z,32.48
2019-03-24T11:18:07.485Z,32.45
2019-03-24T11:20:34.384Z,32.41
2019-03-24T11:23:01.370Z,32.40
2019-03-24T11:25:28.525Z,32.19
2019-03-24T11:27:55.416Z,32.24
2019-03-24T11:30:22.639Z,32.33
2019-03-24T11:32:49.889Z,32.30
2019-03-24T11:35:17.193Z,32.31
2019-03-24T11:37:44.561Z,32.20
2019-03-24T11:40:11.489Z,31.98
2019-03-24T11:42:38.353Z,31.60
2019-03-24T11:45:05.246Z,31.62
2019-03-24T11:47:32.604Z,31.56
2019-03-24T11:49:59.619Z,31.47
2019-03-24T11:52:26.873Z,31.62
2019-03-24T11:54:54.126Z,31.70
2019-03-24T11:57:21.402Z,31.62
2019-03-24T11:59:48.317Z,31.55
2019-03-24T12:02:15.288Z,31.70
2019-03-24T12:04:42.536Z,31.70
2019-03-24T12:07:09.482Z,31.62
2019-03-24T12:09:36.408Z,31.63
2019-03-24T12:12:03.369Z,31.63
2019-03-24T12:14:30.334Z,31.62
2019-03-24T12:16:57.220Z,31.60
2019-03-24T12:19:24.182Z,31.54
2019-03-24T12:21:51.127Z,31.29
2019-03-24T12:24:18.394Z,31.37
2019-03-24T12:26:45.557Z,31.38
2019-03-24T12:29:12.537Z,31.39
2019-03-24T12:31:39.871Z,31.46
2019-03-24T12:34:07.217Z,31.42
2019-03-24T12:36:34.179Z,31.37
2019-03-24T12:39:01.128Z,31.52
2019-03-24T12:41:29.887Z,31.56
2019-03-24T12:43:56.898Z,31.60
2019-03-24T12:46:23.860Z,31.58
2019-03-24T12:48:51.027Z,31.62
2019-03-24T12:51:17.970Z,31.65
2019-03-24T12:53:44.851Z,31.67
2019-03-24T12:56:11.784Z,31.65
2019-03-24T12:58:38.671Z,31.56
2019-03-24T13:01:05.643Z,31.50
2019-03-24T13:03:32.917Z,31.56
2019-03-24T13:05:59.853Z,31.57
2019-03-24T13:08:26.740Z,31.59
2019-03-24T13:10:53.704Z,31.64
2019-03-24T13:13:20.671Z,31.60
2019-03-24T13:15:47.653Z,31.52
2019-03-24T13:18:14.585Z,31.61
2019-03-24T13:20:41.501Z,31.68
2019-03-24T13:23:08.469Z,31.73
2019-03-24T13:25:36.451Z,31.83
2019-03-24T13:28:03.498Z,31.86
2019-03-24T13:30:30.739Z,31.90
2019-03-24T13:32:57.610Z,31.98
2019-03-24T13:35:24.484Z,31.92
2019-03-24T13:37:51.799Z,31.93
2019-03-24T13:40:19.043Z,32.03
2019-03-24T13:42:46.017Z,31.93
2019-03-24T13:45:13.012Z,32.03
2019-03-24T13:47:40.562Z,32.01
2019-03-24T13:50:07.530Z,31.94
2019-03-24T13:52:34.567Z,31.94
2019-03-24T13:55:01.524Z,31.91
2019-03-24T13:57:28.510Z,31.88
2019-03-24T13:59:56.945Z,31.74
2019-03-24T14:02:24.112Z,31.78
2019-03-24T14:04:51.009Z,31.66
2019-03-24T14:07:19.038Z,31.67
2019-03-24T14:09:46.280Z,31.65
2019-03-24T14:12:13.161Z,31.62
2019-03-24T14:14:40.385Z,31.59
2019-03-24T14:17:07.639Z,31.60
2019-03-24T14:19:52.033Z,31.52
2019-03-24T14:22:18.979Z,31.54
2019-03-24T14:24:46.403Z,31.44
2019-03-24T14:27:14.673Z,31.47
2019-03-24T14:29:43.843Z,31.43
2019-03-24T14:32:13.122Z,31.32
2019-03-24T14:34:40.489Z,31.29
2019-03-24T14:37:07.499Z,31.28
2019-03-24T14:39:35.027Z,31.25
2019-03-24T14:42:02.297Z,31.24
2019-03-24T14:44:29.270Z,31.28
2019-03-24T14:46:56.307Z,31.18
2019-03-24T14:49:23.178Z,31.18
2019-03-24T14:51:50.262Z,31.23
2019-03-24T14:54:17.153Z,31.23
2019-03-24T14:56:44.310Z,31.27
2019-03-24T14:59:11.849Z,31.25
2019-03-24T15:01:38.791Z,31.18
2019-03-24T15:04:05.701Z,31.07
2019-03-24T15:06:32.672Z,30.98
2019-03-24T15:09:00.029Z,30.85
2019-03-24T15:11:27.379Z,30.76
2019-03-24T15:13:54.633Z,30.75
2019-03-24T15:16:21.505Z,30.72
2019-03-24T15:18:48.561Z,30.72
2019-03-24T15:21:15.466Z,30.78
2019-03-24T15:23:42.424Z,30.89
2019-03-24T15:26:09.645Z,30.97
2019-03-24T15:28:36.798Z,30.95
2019-03-24T15:31:04.318Z,30.91
2019-03-24T15:33:31.288Z,31.01
2019-03-24T15:35:58.559Z,31.02
2019-03-24T15:38:25.810Z,31.03
2019-03-24T15:40:52.785Z,31.08
2019-03-24T15:43:19.748Z,31.08
2019-03-24T15:45:46.629Z,31.09
2019-03-24T15:48:13.578Z,31.10
2019-03-24T15:50:40.462Z,31.10
2019-03-24T15:53:07.685Z,31.19
2019-03-24T15:55:35.029Z,31.20
2019-03-24T15:58:01.992Z,31.23
2019-03-24T16:00:29.355Z,31.25
2019-03-24T16:02:56.619Z,31.22
2019-03-24T16:05:23.541Z,31.21
2019-03-24T16:07:50.850Z,31.21
2019-03-24T16:10:18.162Z,31.20
2019-03-24T16:12:45.530Z,31.19
2019-03-24T16:15:12.813Z,31.19
2019-03-24T16:17:40.056Z,31.20
2019-03-24T16:20:07.310Z,31.21
2019-03-24T16:22:34.740Z,31.20
2019-03-24T16:25:02.018Z,31.31
2019-03-24T16:27:29.225Z,31.39
2019-03-24T16:29:56.135Z,31.44
2019-03-24T16:32:23.089Z,31.52
2019-03-24T16:34:50.089Z,31.57
2019-03-24T16:37:17.169Z,31.64
2019-03-24T16:39:44.463Z,31.67
2019-03-24T16:42:11.714Z,31.73
2019-03-24T16:44:38.618Z,31.83
2019-03-24T16:47:05.596Z,31.95
2019-03-24T16:49:32.523Z,32.14
2019-03-24T16:51:59.465Z,32.29
2019-03-24T16:54:26.766Z,32.42
2019-03-24T16:56:55.636Z,32.47
2019-03-24T16:59:23.025Z,32.39
2019-03-24T17:01:50.099Z,32.40
2019-03-24T17:04:17.057Z,32.45
2019-03-24T17:06:44.192Z,32.45
2019-03-24T17:09:11.754Z,32.52
2019-03-24T17:11:39.218Z,32.55
2019-03-24T17:14:06.144Z,32.67
2019-03-24T17:16:33.389Z,32.72
2019-03-24T17:19:00.760Z,32.88
2019-03-24T17:21:28.738Z,32.93
2019-03-24T17:23:55.657Z,32.93
2019-03-24T17:26:22.536Z,32.94
2019-03-24T17:28:49.458Z,32.95
2019-03-24T17:31:16.416Z,33.01
2019-03-24T17:33:43.382Z,33.10
2019-03-24T17:36:10.291Z,33.17
2019-03-24T17:38:40.342Z,33.28
2019-03-24T17:41:07.527Z,33.32
2019-03-24T17:43:34.689Z,33.33
2019-03-24T17:46:01.616Z,33.34
2019-03-24T17:48:28.910Z,33.50
2019-03-24T17:50:55.848Z,33.67
2019-03-24T17:53:23.109Z,33.73
2019-03-24T17:55:50.333Z,33.75
2019-03-24T17:58:17.219Z,33.79
2019-03-24T18:00:44.528Z,33.83
2019-03-24T18:03:12.921Z,33.88
2019-03-24T18:05:40.196Z,33.91
2019-03-24T18:08:07.165Z,33.95
2019-03-24T18:10:34.102Z,33.99
2019-03-24T18:13:04.196Z,34.05
2019-03-24T18:15:32.797Z,34.15
2019-03-24T18:18:00.043Z,34.26
2019-03-24T18:20:27.361Z,34.33
2019-03-24T18:22:54.253Z,34.41
2019-03-24T18:25:21.249Z,34.47
2019-03-24T18:27:48.192Z,34.55
2019-03-24T18:30:15.721Z,34.63
2019-03-24T18:32:42.662Z,34.66
2019-03-24T18:35:10.097Z,34.76
2019-03-24T18:37:37.072Z,34.87
2019-03-24T18:40:04.060Z,34.93
2019-03-24T18:42:31.509Z,35.02
2019-03-24T18:44:58.539Z,35.06
2019-03-24T18:47:25.733Z,35.16
2019-03-24T18:49:52.625Z,35.22
2019-03-24T18:52:22.841Z,35.31
2019-03-24T18:54:48.406Z,35.43
2019-03-24T18:57:15.389Z,35.49
2019-03-24T18:59:42.255Z,35.60
2019-03-24T19:02:09.221Z,35.72
2019-03-24T19:04:36.240Z,35.83
2019-03-24T19:07:03.649Z,35.99
2019-03-24T19:09:30.678Z,36.09
2019-03-24T19:11:57.609Z,36.14
2019-03-24T19:14:24.673Z,36.22
2019-03-24T19:16:51.860Z,36.37
2019-03-24T19:19:18.920Z,36.51
2019-03-24T19:21:46.154Z,36.62
2019-03-24T19:24:13.115Z,36.63
2019-03-24T19:26:40.976Z,36.68
2019-03-24T19:29:08.482Z,36.71
2019-03-24T19:31:35.389Z,36.80
2019-03-24T19:34:03.250Z,36.75
2019-03-24T19:36:31.293Z,36.74
2019-03-24T19:38:58.466Z,36.74
2019-03-24T19:41:25.716Z,36.73
2019-03-24T19:43:53.049Z,36.76
2019-03-24T19:46:20.047Z,36.75
2019-03-24T19:48:47.039Z,36.78
2019-03-24T19:51:14.027Z,36.82
2019-03-24T19:53:41.159Z,36.91
2019-03-24T19:56:08.093Z,37.02
2019-03-24T19:58:35.390Z,37.08
2019-03-24T20:01:02.509Z,37.09
2019-03-24T20:03:29.738Z,37.08
2019-03-24T20:05:56.684Z,37.07
2019-03-24T20:08:24.063Z,36.99
2019-03-24T20:10:51.048Z,36.91
2019-03-24T20:13:18.269Z,36.93
2019-03-24T20:15:45.488Z,36.92
2019-03-24T20:18:12.767Z,37.04
2019-03-24T20:20:39.725Z,37.09
2019-03-24T20:23:07.696Z,37.01
2019-03-24T20:25:34.657Z,37.10
2019-03-24T20:28:01.965Z,37.17
2019-03-24T20:30:28.839Z,37.25
2019-03-24T20:32:55.745Z,37.27
2019-03-24T20:35:22.617Z,37.33
2019-03-24T20:37:49.882Z,37.45
2019-03-24T20:40:16.848Z,37.59
2019-03-24T20:42:44.149Z,37.78
2019-03-24T20:45:25.177Z,37.71
2019-03-24T20:47:52.405Z,37.66
2019-03-24T20:50:19.310Z,37.68
2019-03-24T20:52:46.328Z,37.60
2019-03-24T20:55:14.407Z,37.50
2019-03-24T20:57:41.446Z,37.42
2019-03-24T21:00:08.473Z,37.22
2019-03-24T21:02:37.355Z,37.09
2019-03-24T21:05:04.370Z,37.04
2019-03-24T21:07:33.288Z,37.03
2019-03-24T21:10:00.364Z,37.05
2019-03-24T21:12:28.554Z,37.04
2019-03-24T21:14:55.698Z,36.97
2019-03-24T21:17:22.664Z,36.94
2019-03-24T21:19:49.619Z,36.94
2019-03-24T21:22:18.549Z,36.96
2019-03-24T21:24:45.782Z,37.07
2019-03-24T21:27:12.934Z,37.17
2019-03-24T21:29:39.833Z,37.26
2019-03-24T21:32:06.876Z,37.33
2019-03-24T21:34:34.228Z,37.40
2019-03-24T21:37:01.147Z,37.44
2019-03-24T21:39:29.414Z,37.50
2019-03-24T21:41:56.439Z,37.57
2019-03-24T21:44:25.354Z,37.63
2019-03-24T21:49:39.000Z,37.71
2019-03-24T21:52:06.608Z,37.87
2019-03-24T21:54:33.639Z,37.94
2019-03-24T21:57:00.940Z,37.96
2019-03-24T21:59:28.958Z,37.99
2019-03-24T22:01:55.881Z,37.93
2019-03-24T22:04:22.787Z,37.90
2019-03-24T22:06:49.654Z,37.83
2019-03-24T22:09:16.562Z,37.75
2019-03-24T22:11:43.515Z,37.75
2019-03-24T22:14:10.460Z,37.82
2019-03-24T22:16:37.850Z,37.86
2019-03-24T22:19:04.741Z,37.93
2019-03-24T22:21:32.048Z,37.98
2019-03-24T22:23:59.341Z,38.12
2019-03-24T22:26:26.303Z,38.22
2019-03-24T22:28:53.243Z,38.22
2019-03-24T22:31:20.145Z,38.24
2019-03-24T22:33:47.040Z,38.33
2019-03-24T22:36:14.449Z,38.39
2019-03-24T22:38:41.407Z,38.39
2019-03-24T22:41:08.741Z,38.39
2019-03-24T22:43:36.036Z,38.40
2019-03-24T22:46:03.247Z,38.40
2019-03-24T22:48:30.434Z,38.41
2019-03-24T22:50:57.409Z,38.40
2019-03-24T22:53:24.641Z,38.37
2019-03-24T22:55:51.619Z,38.42
2019-03-24T22:58:18.862Z,38.45
2019-03-24T23:00:46.042Z,38.41
2019-03-24T23:03:14.879Z,38.38
2019-03-24T23:05:42.089Z,38.29
2019-03-24T23:08:09.138Z,38.32
2019-03-24T23:10:36.401Z,38.38
2019-03-24T23:13:03.340Z,38.40
2019-03-24T23:15:30.481Z,38.39
2019-03-24T23:17:57.433Z,38.41
2019-03-24T23:20:24.692Z,38.39
2019-03-24T23:22:51.654Z,38.35
2019-03-24T23:25:18.633Z,38.30
2019-03-24T23:27:45.637Z,38.37
2019-03-24T23:30:12.546Z,38.38
2019-03-24T23:32:39.486Z,38.37
2019-03-24T23:35:06.455Z,38.39
2019-03-24T23:37:33.394Z,38.36
2019-03-24T23:40:00.347Z,38.40
2019-03-24T23:42:27.496Z,38.35
2019-03-24T23:44:54.385Z,38.32
2019-03-24T23:47:21.432Z,38.32
2019-03-24T23:49:48.369Z,38.41
2019-03-24T23:52:15.261Z,38.34
2019-03-24T23:54:42.428Z,38.25
2019-03-24T23:57:09.340Z,38.26
2019-03-24T23:59:36.656Z,38.24
